Time;durP1;ratioP1;P1;durP2;ratioP2;P2;SDS_P1;SDS_P2;PMS_P1;PMS_P2;Temp;Humidity;BMP_temperature;BMP_pressure;BME280_temperature;BME280_humidity;BME280_pressure;Samples;Min_cycle;Max_cycle;Signal;HPM_P1;HPM_P2
2021/05/25 00:02:24;;;;;;;1.60;0.70;;;13.20;95.30;;;;;;5034250;28;20215;-78
2021/05/25 00:04:50;;;;;;;1.10;0.50;;;13.10;95.50;;;;;;5051937;28;20193;-77
2021/05/25 00:07:15;;;;;;;2.80;0.60;;;13.10;95.70;;;;;;5051526;28;20606;-77
2021/05/25 00:09:41;;;;;;;2.90;0.60;;;13.00;95.80;;;;;;5051985;28;20564;-77
2021/05/25 00:12:07;;;;;;;1.43;0.50;;;13.00;95.90;;;;;;5051697;28;20169;-77
2021/05/25 00:14:34;;;;;;;1.20;0.50;;;13.00;96.00;;;;;;5051657;28;20595;-77
2021/05/25 00:16:59;;;;;;;1.00;0.50;;;13.00;96.00;;;;;;5051478;28;20714;-77
2021/05/25 00:19:26;;;;;;;1.90;0.60;;;13.00;96.10;;;;;;5033908;28;20248;-77
2021/05/25 00:21:51;;;;;;;1.17;0.50;;;13.10;96.10;;;;;;5034034;28;20614;-77
2021/05/25 00:24:17;;;;;;;1.10;0.50;;;13.10;96.20;;;;;;5052034;28;20181;-77
2021/05/25 00:26:43;;;;;;;1.00;0.50;;;13.10;96.20;;;;;;5051367;28;20615;-77
2021/05/25 00:29:09;;;;;;;1.00;0.50;;;13.10;96.30;;;;;;5033963;28;20543;-78
2021/05/25 00:31:35;;;;;;;2.57;0.60;;;13.10;96.30;;;;;;5050447;28;20196;-78
2021/05/25 00:34:00;;;;;;;1.50;0.50;;;13.10;96.30;;;;;;5033711;28;20201;-78
2021/05/25 00:36:27;;;;;;;1.00;0.50;;;13.10;96.40;;;;;;5049936;28;20205;-78
2021/05/25 00:38:53;;;;;;;1.10;0.50;;;13.10;96.40;;;;;;5051767;28;20270;-78
2021/05/25 00:41:19;;;;;;;1.03;0.50;;;13.10;96.50;;;;;;5033744;28;20238;-77
2021/05/25 00:43:45;;;;;;;1.92;0.57;;;13.10;96.50;;;;;;5033598;28;20612;-77
2021/05/25 00:46:11;;;;;;;1.00;0.43;;;13.10;96.50;;;;;;5059085;28;20169;-82
2021/05/25 00:48:37;;;;;;;1.37;0.50;;;13.10;96.40;;;;;;5060493;28;20172;-83
2021/05/25 00:51:04;;;;;;;1.03;0.50;;;13.10;96.50;;;;;;5060898;28;20639;-82
2021/05/25 00:53:30;;;;;;;2.28;0.50;;;13.10;96.50;;;;;;5058769;28;20212;-82
2021/05/25 00:55:56;;;;;;;1.77;0.50;;;13.10;96.50;;;;;;5053178;28;20196;-82
2021/05/25 00:58:22;;;;;;;1.40;0.70;;;13.10;96.40;;;;;;5052920;28;20558;-82
2021/05/25 01:00:49;;;;;;;1.20;0.50;;;13.10;96.40;;;;;;5053436;28;20603;-82
2021/05/25 01:03:20;;;;;;;1.20;0.45;;;13.00;96.30;;;;;;5035293;28;20193;-82
2021/05/25 01:05:48;;;;;;;1.23;0.50;;;13.00;96.30;;;;;;5062064;28;20162;-83
2021/05/25 01:08:14;;;;;;;1.00;0.50;;;13.00;96.20;;;;;;5063974;28;20176;-83
2021/05/25 01:10:45;;;;;;;1.02;0.47;;;12.90;96.20;;;;;;5038680;28;20168;-83
2021/05/25 01:13:15;;;;;;;1.10;0.40;;;12.90;96.20;;;;;;5057980;28;20189;-83
2021/05/25 01:15:41;;;;;;;1.40;0.60;;;12.80;96.20;;;;;;5041162;28;20180;-83
2021/05/25 01:18:08;;;;;;;1.67;0.50;;;12.80;96.20;;;;;;5059848;28;20177;-83
2021/05/25 01:20:36;;;;;;;1.00;0.50;;;12.70;96.20;;;;;;5059158;28;20200;-83
2021/05/25 01:23:03;;;;;;;1.08;0.43;;;12.70;96.30;;;;;;5058866;28;20235;-83
2021/05/25 01:25:31;;;;;;;1.00;0.50;;;12.60;96.20;;;;;;5041584;28;20180;-83
2021/05/25 01:28:03;;;;;;;0.90;0.40;;;12.60;96.30;;;;;;5046542;28;20521;-84
2021/05/25 01:30:32;;;;;;;1.20;0.50;;;12.50;96.30;;;;;;5044604;28;20219;-84
2021/05/25 01:32:59;;;;;;;3.08;0.50;;;12.50;96.40;;;;;;5064981;28;20284;-83
2021/05/25 01:35:25;;;;;;;2.28;0.50;;;12.50;96.50;;;;;;5063340;28;20180;-84
2021/05/25 01:37:53;;;;;;;1.00;0.45;;;12.50;96.60;;;;;;5060755;28;20252;-84
2021/05/25 01:40:20;;;;;;;1.65;0.50;;;12.40;96.50;;;;;;5057308;28;20271;-84
2021/05/25 01:42:46;;;;;;;1.30;0.40;;;12.40;96.50;;;;;;5068797;28;20787;-84
2021/05/25 01:45:17;;;;;;;1.20;0.50;;;12.40;96.50;;;;;;5048438;28;20724;-84
2021/05/25 01:47:43;;;;;;;1.15;0.50;;;12.40;96.60;;;;;;5066198;28;20169;-84
2021/05/25 01:50:14;;;;;;;3.20;0.50;;;12.40;96.70;;;;;;5065826;28;20180;-84
2021/05/25 01:52:53;;;;;;;2.10;0.47;;;12.30;96.70;;;;;;5066371;28;20590;-84
2021/05/25 01:55:31;;;;;;;1.00;0.40;;;12.30;96.80;;;;;;5066434;28;20224;-84
2021/05/25 01:58:00;;;;;;;1.00;0.43;;;12.30;97.00;;;;;;5065279;28;20177;-84
2021/05/25 02:00:26;;;;;;;1.60;0.85;;;12.30;96.90;;;;;;5065661;28;20271;-84
2021/05/25 02:02:52;;;;;;;1.80;0.40;;;12.30;96.90;;;;;;5067657;28;20200;-84
2021/05/25 02:05:18;;;;;;;1.70;0.50;;;12.30;97.00;;;;;;5066591;28;20177;-84
2021/05/25 02:07:49;;;;;;;1.33;0.50;;;12.30;97.10;;;;;;5066249;28;20578;-84
2021/05/25 02:10:30;;;;;;;1.30;0.50;;;12.30;97.70;;;;;;5063219;28;20223;-84
2021/05/25 02:13:02;;;;;;;3.13;0.52;;;12.30;97.60;;;;;;5059208;28;20558;-84
2021/05/25 02:15:28;;;;;;;1.05;0.43;;;12.20;97.50;;;;;;5062224;28;20306;-84
2021/05/25 02:17:55;;;;;;;1.10;0.50;;;12.20;97.50;;;;;;5063467;28;20219;-83
2021/05/25 02:20:21;;;;;;;1.17;0.60;;;12.20;97.60;;;;;;5067577;28;20192;-85
2021/05/25 02:22:47;;;;;;;2.55;0.50;;;12.10;97.70;;;;;;5071540;28;20612;-84
2021/05/25 02:25:13;;;;;;;1.33;0.50;;;12.10;97.90;;;;;;5062679;28;20193;-84
2021/05/25 02:27:39;;;;;;;1.33;0.50;;;12.10;98.10;;;;;;5059390;28;20584;-84
2021/05/25 02:30:06;;;;;;;4.97;0.63;;;12.10;98.20;;;;;;5058377;28;20273;-84
2021/05/25 02:32:32;;;;;;;2.10;0.47;;;12.00;98.30;;;;;;5037893;28;20568;-84
2021/05/25 02:34:57;;;;;;;1.20;0.50;;;12.00;98.50;;;;;;5056075;28;20172;-83
2021/05/25 02:37:23;;;;;;;1.10;0.47;;;12.00;98.40;;;;;;5056167;28;20166;-84
2021/05/25 02:39:49;;;;;;;1.90;0.50;;;12.00;98.40;;;;;;5055045;28;20169;-83
2021/05/25 02:42:15;;;;;;;1.17;0.50;;;11.90;98.40;;;;;;5022501;28;20177;-84
2021/05/25 02:44:40;;;;;;;1.70;0.50;;;11.90;98.60;;;;;;5058209;28;20181;-84
2021/05/25 02:47:06;;;;;;;1.20;0.50;;;11.90;98.70;;;;;;5040047;28;20173;-84
2021/05/25 02:49:32;;;;;;;1.00;0.43;;;11.90;98.80;;;;;;5037140;28;20256;-84
2021/05/25 02:51:58;;;;;;;1.00;0.40;;;11.90;98.90;;;;;;5056291;28;20242;-84
2021/05/25 02:54:23;;;;;;;1.27;0.40;;;11.90;99.00;;;;;;5037737;28;20193;-84
2021/05/25 02:56:49;;;;;;;1.10;0.50;;;11.90;99.30;;;;;;5055276;28;20169;-83
2021/05/25 02:59:15;;;;;;;1.50;0.60;;;11.80;99.40;;;;;;5055380;28;20176;-83
2021/05/25 03:01:40;;;;;;;1.10;0.40;;;11.80;99.50;;;;;;5038313;28;20200;-83
2021/05/25 03:04:06;;;;;;;2.70;0.40;;;11.80;99.50;;;;;;5056577;28;20193;-83
2021/05/25 03:06:32;;;;;;;1.30;0.50;;;11.80;99.60;;;;;;5056860;28;20315;-84
2021/05/25 03:08:58;;;;;;;1.77;0.50;;;11.80;99.70;;;;;;5041120;28;20625;-83
2021/05/25 03:11:23;;;;;;;1.20;0.50;;;11.80;99.70;;;;;;5057503;28;20173;-84
2021/05/25 03:13:51;;;;;;;1.60;0.50;;;11.80;99.70;;;;;;5056990;28;20242;-83
2021/05/25 03:16:17;;;;;;;1.73;0.50;;;11.80;99.80;;;;;;5057902;28;20173;-82
2021/05/25 03:18:43;;;;;;;1.00;0.50;;;11.80;99.80;;;;;;5057328;28;20215;-85
2021/05/25 03:21:09;;;;;;;1.40;0.60;;;11.80;99.90;;;;;;5056897;28;20232;-83
2021/05/25 03:23:35;;;;;;;1.00;0.50;;;11.80;99.90;;;;;;5053696;28;20586;-84
2021/05/25 03:26:02;;;;;;;1.88;0.60;;;11.80;99.90;;;;;;5036853;28;20177;-83
2021/05/25 03:28:28;;;;;;;1.10;0.50;;;11.80;99.90;;;;;;5041468;28;20224;-84
2021/05/25 03:30:53;;;;;;;1.10;0.50;;;11.80;99.90;;;;;;5066963;28;20185;-82
2021/05/25 03:33:19;;;;;;;1.37;0.50;;;11.70;99.90;;;;;;5058416;28;20216;-83
2021/05/25 03:35:45;;;;;;;1.10;0.50;;;11.60;99.90;;;;;;5069487;28;20558;-84
2021/05/25 03:38:11;;;;;;;1.20;0.50;;;11.60;99.90;;;;;;5049738;28;20173;-84
2021/05/25 03:40:37;;;;;;;1.75;0.50;;;11.50;99.90;;;;;;5064890;28;20613;-83
2021/05/25 03:43:03;;;;;;;1.00;0.47;;;11.50;99.90;;;;;;5062126;28;20193;-84
2021/05/25 03:45:30;;;;;;;1.10;0.50;;;11.50;99.90;;;;;;5061655;28;20572;-84
2021/05/25 03:47:55;;;;;;;1.50;0.50;;;11.50;99.90;;;;;;5066070;28;20263;-84
2021/05/25 03:50:22;;;;;;;1.73;0.50;;;11.50;99.90;;;;;;5075174;28;20172;-84
2021/05/25 03:52:57;;;;;;;2.50;0.50;;;11.50;99.90;;;;;;5058643;28;20700;-84
2021/05/25 04:00:55;;;;;;;1.25;0.50;;;11.50;99.90;;;;;;5069644;28;20225;-84
2021/05/25 04:03:21;;;;;;;1.20;0.50;;;11.60;99.90;;;;;;5044977;28;20215;-84
2021/05/25 04:05:47;;;;;;;1.77;0.40;;;11.50;99.90;;;;;;5064151;28;20165;-84
2021/05/25 04:08:14;;;;;;;2.25;0.50;;;11.50;99.90;;;;;;5072065;28;20149;-84
2021/05/25 04:10:39;;;;;;;1.42;0.60;;;11.50;99.90;;;;;;5071775;28;20240;-84
2021/05/25 04:13:05;;;;;;;1.30;0.50;;;11.50;99.90;;;;;;5067608;28;20298;-84
2021/05/25 04:15:33;;;;;;;1.60;0.60;;;11.60;99.90;;;;;;5067118;28;20173;-84
2021/05/25 04:17:59;;;;;;;2.38;0.60;;;11.70;99.90;;;;;;5049559;28;20563;-84
2021/05/25 04:20:25;;;;;;;2.95;1.25;;;11.70;99.90;;;;;;5067615;28;20201;-83
2021/05/25 04:22:51;;;;;;;1.60;0.50;;;11.80;99.90;;;;;;5067463;28;20212;-82
2021/05/25 04:25:17;;;;;;;1.00;0.50;;;11.80;99.90;;;;;;5066657;28;20583;-83
2021/05/25 04:27:43;;;;;;;1.40;0.60;;;11.90;99.90;;;;;;5065046;28;20165;-83
2021/05/25 04:30:10;;;;;;;2.33;0.40;;;12.00;99.90;;;;;;5064055;28;20177;-84
2021/05/25 04:32:36;;;;;;;1.20;0.60;;;12.10;99.90;;;;;;5060970;28;20658;-86
2021/05/25 04:35:02;;;;;;;1.35;0.50;;;12.10;99.90;;;;;;5064052;28;20188;-83
2021/05/25 04:37:28;;;;;;;1.95;0.50;;;12.20;99.90;;;;;;5067081;28;20172;-83
2021/05/25 04:39:54;;;;;;;2.93;0.60;;;12.30;99.90;;;;;;5065435;28;20502;-83
2021/05/25 04:42:20;;;;;;;1.30;0.50;;;12.30;99.90;;;;;;5060629;28;20641;-84
2021/05/25 04:44:45;;;;;;;1.47;0.50;;;12.40;99.90;;;;;;5064041;28;20189;-84
2021/05/25 04:47:11;;;;;;;1.77;0.60;;;12.40;99.90;;;;;;5062138;28;20176;-84
2021/05/25 04:49:39;;;;;;;1.20;0.50;;;12.50;99.90;;;;;;5061087;28;20177;-84
2021/05/25 04:52:06;;;;;;;1.55;0.50;;;12.60;99.90;;;;;;5004638;28;20184;-84
2021/05/25 04:54:32;;;;;;;1.90;0.60;;;12.60;99.90;;;;;;5065077;28;20239;-83
2021/05/25 04:56:58;;;;;;;1.27;0.40;;;12.70;99.90;;;;;;5046042;28;20169;-83
2021/05/25 04:59:23;;;;;;;1.00;0.40;;;12.70;99.90;;;;;;5062334;28;20560;-83
2021/05/25 05:01:49;;;;;;;1.10;0.50;;;12.80;99.90;;;;;;5061324;28;20197;-83
2021/05/25 05:04:15;;;;;;;0.90;0.40;;;12.90;99.90;;;;;;5061357;28;20188;-83
2021/05/25 05:06:41;;;;;;;1.00;0.40;;;12.90;99.90;;;;;;5058678;28;20564;-84
2021/05/25 05:09:07;;;;;;;1.40;0.50;;;13.00;99.90;;;;;;5054448;28;20598;-84
2021/05/25 05:11:32;;;;;;;1.10;0.50;;;13.00;99.90;;;;;;5053894;28;20177;-83
2021/05/25 05:13:59;;;;;;;1.20;0.47;;;13.00;99.90;;;;;;5053051;28;20603;-84
2021/05/25 05:16:24;;;;;;;1.00;0.40;;;13.00;99.90;;;;;;5033583;28;20196;-84
2021/05/25 05:18:50;;;;;;;1.23;0.50;;;13.00;99.90;;;;;;5051077;28;20645;-85
2021/05/25 05:21:16;;;;;;;4.10;0.50;;;13.00;99.90;;;;;;5051905;28;20630;-84
2021/05/25 05:23:42;;;;;;;1.23;0.50;;;12.90;99.90;;;;;;5036670;28;20185;-83
2021/05/25 05:26:08;;;;;;;3.40;0.60;;;12.80;99.90;;;;;;5053086;28;20563;-80
2021/05/25 05:28:34;;;;;;;1.85;0.70;;;12.80;99.90;;;;;;5050802;28;20173;-82
2021/05/25 05:31:00;;;;;;;1.00;0.50;;;12.70;99.90;;;;;;5055353;28;20517;-81
2021/05/25 05:33:27;;;;;;;5.63;0.60;;;12.70;99.90;;;;;;5059187;28;20619;-81
2021/05/25 05:35:53;;;;;;;1.70;0.60;;;12.60;99.90;;;;;;5061455;28;20177;-82
2021/05/25 05:38:19;;;;;;;1.40;0.60;;;12.50;99.90;;;;;;5054722;28;20226;-81
2021/05/25 05:40:45;;;;;;;1.50;0.60;;;12.50;99.90;;;;;;5055880;28;20626;-82
2021/05/25 05:43:12;;;;;;;1.10;0.57;;;12.50;99.90;;;;;;5039219;28;20603;-81
2021/05/25 05:45:37;;;;;;;1.10;0.70;;;12.40;99.90;;;;;;5064257;28;20577;-81
2021/05/25 05:48:04;;;;;;;1.00;0.60;;;12.30;99.90;;;;;;5064987;28;20665;-81
2021/05/25 05:50:29;;;;;;;1.30;0.50;;;12.30;99.90;;;;;;5056778;28;20177;-81
2021/05/25 05:52:56;;;;;;;1.20;0.60;;;12.30;99.90;;;;;;5055200;28;20203;-82
2021/05/25 05:55:22;;;;;;;1.25;0.60;;;12.30;99.90;;;;;;5054547;28;20582;-81
2021/05/25 05:57:48;;;;;;;1.10;0.60;;;12.20;99.90;;;;;;5059827;28;20168;-82
2021/05/25 06:00:15;;;;;;;1.20;0.63;;;12.20;99.90;;;;;;5061670;28;20227;-80
2021/05/25 06:02:41;;;;;;;2.25;0.60;;;12.10;99.90;;;;;;5062477;28;20176;-81
2021/05/25 06:05:07;;;;;;;1.10;0.50;;;12.10;99.90;;;;;;5060928;28;20177;-79
2021/05/25 06:07:33;;;;;;;1.00;0.50;;;12.00;99.90;;;;;;5065241;28;20567;-81
2021/05/25 06:10:01;;;;;;;1.10;0.50;;;12.00;99.90;;;;;;5041982;28;20169;-81
2021/05/25 06:12:27;;;;;;;1.00;0.50;;;11.90;99.90;;;;;;5060689;28;20165;-82
2021/05/25 06:14:52;;;;;;;1.00;0.50;;;11.90;99.90;;;;;;5058302;28;20176;-82
2021/05/25 06:17:18;;;;;;;0.90;0.40;;;11.90;99.90;;;;;;5039803;28;20169;-82
2021/05/25 06:19:44;;;;;;;0.97;0.50;;;11.90;99.90;;;;;;5059640;28;20165;-80
2021/05/25 06:22:11;;;;;;;1.10;0.50;;;12.00;99.90;;;;;;5055916;28;20227;-84
2021/05/25 06:24:37;;;;;;;1.00;0.40;;;12.00;99.90;;;;;;5036218;28;20194;-81
2021/05/25 06:27:04;;;;;;;1.00;0.40;;;12.10;99.90;;;;;;5042808;28;20169;-82
2021/05/25 06:29:29;;;;;;;1.50;0.50;;;12.10;99.90;;;;;;5022389;28;20626;-81
2021/05/25 06:32:00;;;;;;;1.30;0.50;;;12.20;99.90;;;;;;5044289;28;20256;-81
2021/05/25 06:34:27;;;;;;;1.20;0.50;;;12.20;99.90;;;;;;5067908;28;20203;-81
2021/05/25 06:36:53;;;;;;;1.65;0.40;;;12.30;99.90;;;;;;5067223;28;20169;-80
2021/05/25 06:39:19;;;;;;;1.08;0.40;;;12.30;99.90;;;;;;5063872;28;20224;-83
2021/05/25 06:41:45;;;;;;;1.00;0.40;;;12.40;99.90;;;;;;5035837;28;20200;-82
2021/05/25 06:44:12;;;;;;;1.60;0.60;;;12.40;99.90;;;;;;5059297;28;20181;-80
2021/05/25 06:46:37;;;;;;;1.00;0.40;;;12.40;99.90;;;;;;5060800;28;20195;-79
2021/05/25 06:49:03;;;;;;;1.10;0.70;;;12.50;99.90;;;;;;5056579;28;20169;-78
2021/05/25 06:51:29;;;;;;;1.33;0.40;;;12.50;99.90;;;;;;5059245;28;21206;-79
2021/05/25 06:53:55;;;;;;;3.20;0.47;;;12.50;99.90;;;;;;5063021;28;20292;-79
2021/05/25 06:56:21;;;;;;;0.90;0.40;;;12.50;99.90;;;;;;5059923;28;20173;-79
2021/05/25 06:58:47;;;;;;;1.10;0.50;;;12.50;99.90;;;;;;5057775;28;20256;-79
2021/05/25 07:01:13;;;;;;;1.03;0.50;;;12.50;99.90;;;;;;5055200;28;20228;-79
2021/05/25 07:03:39;;;;;;;1.17;0.50;;;12.50;99.90;;;;;;5054668;28;20185;-79
2021/05/25 07:06:07;;;;;;;1.10;0.50;;;12.50;99.90;;;;;;5055284;28;20221;-80
2021/05/25 07:08:33;;;;;;;1.00;0.40;;;12.50;99.90;;;;;;5037189;28;20173;-79
2021/05/25 07:10:58;;;;;;;1.00;0.40;;;12.50;99.90;;;;;;5057873;28;20544;-79
2021/05/25 07:13:24;;;;;;;1.00;0.50;;;12.60;99.90;;;;;;5052972;28;20248;-79
2021/05/25 07:15:50;;;;;;;1.20;0.43;;;12.60;99.90;;;;;;5053711;28;20172;-79
2021/05/25 07:18:18;;;;;;;1.00;0.40;;;12.60;99.90;;;;;;5053219;28;20295;-79
2021/05/25 07:20:44;;;;;;;1.00;0.50;;;12.70;99.90;;;;;;5054472;28;20203;-79
2021/05/25 07:23:10;;;;;;;1.13;0.50;;;12.70;99.90;;;;;;5056534;28;20211;-79
2021/05/25 07:25:37;;;;;;;0.90;0.40;;;12.70;99.90;;;;;;5056862;28;20331;-79
2021/05/25 07:28:03;;;;;;;1.10;0.50;;;12.80;99.90;;;;;;5055466;28;20169;-79
2021/05/25 07:30:29;;;;;;;1.00;0.50;;;12.80;99.90;;;;;;5054433;28;20169;-76
2021/05/25 07:32:55;;;;;;;2.85;0.60;;;12.80;99.90;;;;;;5035837;28;20200;-77
2021/05/25 07:35:21;;;;;;;1.10;0.50;;;12.70;99.90;;;;;;5053961;28;20579;-77
2021/05/25 07:37:47;;;;;;;1.00;0.40;;;12.60;99.90;;;;;;5052387;28;20564;-79
2021/05/25 07:40:17;;;;;;;1.00;0.50;;;12.40;99.90;;;;;;5051929;28;20232;-80
2021/05/25 07:42:45;;;;;;;1.20;0.50;;;12.30;99.90;;;;;;5035513;28;20177;-80
2021/05/25 07:45:11;;;;;;;2.10;0.50;;;12.10;99.90;;;;;;5018595;28;20667;-79
2021/05/25 07:47:37;;;;;;;1.20;0.50;;;12.00;99.90;;;;;;5057388;28;20168;-78
2021/05/25 07:50:14;;;;;;;1.23;0.50;;;11.90;99.90;;;;;;5052710;28;20157;-78
2021/05/25 07:52:41;;;;;;;1.00;0.50;;;11.90;99.90;;;;;;5034755;28;20555;-79
2021/05/25 07:55:08;;;;;;;1.48;0.50;;;12.00;99.90;;;;;;5052398;28;20261;-80
2021/05/25 07:57:34;;;;;;;1.20;0.70;;;12.00;99.90;;;;;;5034197;28;20169;-79
2021/05/25 08:00:00;;;;;;;2.17;0.80;;;12.20;99.90;;;;;;5051969;28;20161;-79
2021/05/25 08:02:25;;;;;;;1.40;0.50;;;12.40;99.90;;;;;;5033876;28;20165;-79
2021/05/25 08:04:51;;;;;;;1.00;0.50;;;12.60;99.90;;;;;;5033720;28;20580;-79
2021/05/25 08:07:17;;;;;;;1.30;0.50;;;12.90;99.90;;;;;;5051370;28;20161;-79
2021/05/25 08:09:46;;;;;;;1.00;0.50;;;13.30;99.90;;;;;;5051666;28;20165;-79
2021/05/25 08:12:11;;;;;;;1.40;0.50;;;13.90;99.90;;;;;;5049628;28;20231;-79
2021/05/25 08:14:38;;;;;;;1.40;0.50;;;14.60;99.90;;;;;;5051441;28;20188;-78
2021/05/25 08:17:17;;;;;;;1.10;0.40;;;15.50;99.90;;;;;;5050721;28;20169;-80
2021/05/25 08:19:44;;;;;;;1.10;0.50;;;16.60;99.90;;;;;;5050822;28;20997;-80
2021/05/25 08:22:10;;;;;;;2.50;0.50;;;17.60;99.90;;;;;;5033223;28;21027;-80
2021/05/25 08:24:36;;;;;;;2.30;0.60;;;18.30;99.90;;;;;;5051715;28;20598;-80
2021/05/25 08:27:02;;;;;;;1.10;0.53;;;18.70;99.90;;;;;;5057215;28;20196;-79
2021/05/25 08:29:27;;;;;;;1.10;0.47;;;19.20;99.90;;;;;;5065627;28;20576;-79
2021/05/25 08:31:53;;;;;;;2.97;0.50;;;19.40;99.90;;;;;;5071180;28;20644;-79
2021/05/25 08:34:19;;;;;;;1.90;0.60;;;19.40;99.90;;;;;;5053414;28;20258;-79
2021/05/25 08:36:45;;;;;;;1.00;0.50;;;19.30;99.90;;;;;;5036392;28;20176;-79
2021/05/25 08:39:10;;;;;;;2.10;0.50;;;19.10;99.90;;;;;;5051993;28;20184;-79
2021/05/25 08:41:36;;;;;;;1.00;0.40;;;18.80;99.90;;;;;;5034918;28;20224;-79
2021/05/25 08:44:03;;;;;;;1.23;0.40;;;18.50;99.90;;;;;;5033922;28;20189;-79
2021/05/25 08:46:29;;;;;;;1.00;0.40;;;18.10;99.90;;;;;;5051036;28;20177;-78
2021/05/25 08:48:56;;;;;;;1.10;0.50;;;17.80;99.90;;;;;;5051051;28;20572;-78
2021/05/25 08:51:22;;;;;;;1.10;0.50;;;17.40;99.90;;;;;;5051446;28;20578;-79
2021/05/25 08:53:48;;;;;;;1.00;0.40;;;17.30;99.90;;;;;;5050952;28;20599;-79
2021/05/25 08:56:14;;;;;;;1.10;0.50;;;17.30;99.90;;;;;;5051276;28;20172;-80
2021/05/25 08:58:40;;;;;;;1.47;0.50;;;17.30;99.90;;;;;;5050027;28;20572;-80
2021/05/25 09:01:06;;;;;;;1.10;0.50;;;17.40;99.90;;;;;;5053089;28;20203;-79
2021/05/25 09:03:31;;;;;;;1.00;0.40;;;17.50;99.90;;;;;;5033173;28;20189;-79
2021/05/25 09:06:07;;;;;;;2.07;0.43;;;17.50;99.90;;;;;;5051333;28;20902;-80
2021/05/25 09:08:34;;;;;;;1.90;0.90;;;17.50;99.90;;;;;;5050860;28;20562;-80
2021/05/25 09:11:10;;;;;;;1.60;1.23;;;17.40;99.90;;;;;;5051008;28;20579;-79
2021/05/25 09:13:36;;;;;;;1.60;0.90;;;17.20;99.90;;;;;;5051762;28;20606;-80
2021/05/25 09:16:07;;;;;;;2.60;0.70;;;17.00;99.90;;;;;;5051359;28;20595;-79
2021/05/25 09:18:47;;;;;;;1.10;0.40;;;16.90;99.90;;;;;;5050516;28;21123;-79
2021/05/25 09:21:32;;;;;;;1.00;0.40;;;16.90;99.90;;;;;;5050835;28;20718;-80
2021/05/25 09:23:58;;;;;;;1.40;0.60;;;17.10;99.90;;;;;;5050385;28;20610;-80
2021/05/25 09:26:34;;;;;;;1.63;0.50;;;17.30;99.90;;;;;;5050768;28;20568;-79
2021/05/25 09:29:03;;;;;;;2.67;0.50;;;17.80;99.90;;;;;;5050861;28;20670;-79
2021/05/25 09:31:40;;;;;;;1.53;0.40;;;18.40;99.90;;;;;;5054833;28;20625;-79
2021/05/25 09:34:10;;;;;;;1.37;0.40;;;18.60;99.90;;;;;;5054327;28;20617;-79
2021/05/25 09:37:03;;;;;;;1.10;0.40;;;18.80;99.90;;;;;;5036473;28;20601;-79
2021/05/25 09:39:31;;;;;;;3.10;0.50;;;18.90;99.90;;;;;;5054553;28;20670;-78
2021/05/25 09:42:02;;;;;;;1.80;0.50;;;19.30;99.90;;;;;;5054485;28;20680;-79
2021/05/25 09:44:28;;;;;;;2.00;0.50;;;19.80;99.90;;;;;;5053942;28;20587;-79
2021/05/25 09:46:55;;;;;;;1.40;0.40;;;20.30;99.90;;;;;;5054835;28;20608;-80
2021/05/25 09:49:21;;;;;;;1.27;0.40;;;20.60;99.90;;;;;;5061109;28;20632;-79
2021/05/25 09:51:46;;;;;;;1.07;0.50;;;20.80;99.90;;;;;;5061324;28;20575;-79
2021/05/25 09:54:19;;;;;;;1.40;0.57;;;20.80;99.90;;;;;;5060457;28;20611;-79
2021/05/25 09:56:56;;;;;;;1.37;0.50;;;20.80;98.80;;;;;;5041423;28;20576;-78
2021/05/25 09:59:39;;;;;;;1.20;0.57;;;20.70;98.60;;;;;;5059744;28;20594;-79
2021/05/25 10:02:22;;;;;;;1.10;0.47;;;20.80;97.80;;;;;;5039534;28;20649;-78
2021/05/25 10:05:03;;;;;;;2.63;0.70;;;20.80;98.00;;;;;;5056973;28;20611;-79
2021/05/25 10:07:29;;;;;;;1.17;0.50;;;20.60;97.20;;;;;;5039514;28;20571;-79
2021/05/25 10:09:57;;;;;;;1.20;0.60;;;20.20;97.10;;;;;;5056250;28;20582;-79
2021/05/25 10:12:26;;;;;;;1.33;0.63;;;19.90;96.90;;;;;;5039434;28;21027;-79
2021/05/25 10:14:52;;;;;;;1.60;0.60;;;19.50;96.80;;;;;;5057738;28;20603;-79
2021/05/25 10:20:05;;;;;;;4.60;1.00;;;18.70;96.80;;;;;;5053288;28;20578;-79
2021/05/25 10:22:32;;;;;;;2.40;1.10;;;18.30;97.00;;;;;;5054950;28;20586;-80
2021/05/25 10:24:58;;;;;;;4.33;1.07;;;18.00;97.20;;;;;;5054568;28;20902;-79
2021/05/25 10:27:28;;;;;;;2.40;0.87;;;17.70;97.50;;;;;;5054510;28;20554;-80
2021/05/25 10:29:54;;;;;;;5.10;1.20;;;17.40;97.80;;;;;;5036089;28;20601;-79
2021/05/25 10:32:24;;;;;;;1.80;0.90;;;17.20;98.10;;;;;;5054481;28;20670;-79
2021/05/25 10:34:52;;;;;;;4.47;1.20;;;17.00;98.40;;;;;;5058742;28;20599;-81
2021/05/25 10:37:19;;;;;;;1.40;0.80;;;16.90;98.90;;;;;;5043598;28;20563;-81
2021/05/25 10:39:46;;;;;;;1.53;0.80;;;16.90;99.30;;;;;;5059047;28;20904;-81
2021/05/25 10:42:28;;;;;;;1.40;0.70;;;16.90;99.50;;;;;;5059924;28;20611;-81
2021/05/25 10:44:59;;;;;;;3.07;1.10;;;16.80;99.10;;;;;;5059436;28;20576;-81
2021/05/25 10:50:44;;;;;;;4.97;3.23;;;16.80;99.10;;;;;;5050912;28;20623;-81
2021/05/25 10:53:18;;;;;;;3.10;2.43;;;16.70;99.40;;;;;;5064686;28;20635;-81
2021/05/25 10:55:44;;;;;;;2.13;1.10;;;16.70;99.50;;;;;;5061094;28;20583;-81
2021/05/25 10:58:34;;;;;;;4.40;1.03;;;16.60;99.50;;;;;;5041211;28;20567;-81
2021/05/25 11:01:30;;;;;;;3.90;0.90;;;16.50;99.10;;;;;;5057064;28;20619;-77
2021/05/25 11:04:09;;;;;;;3.40;0.80;;;16.30;99.10;;;;;;5052944;28;20623;-77
2021/05/25 11:06:35;;;;;;;6.85;0.93;;;16.20;98.90;;;;;;5034312;28;20559;-77
2021/05/25 11:09:22;;;;;;;3.80;0.90;;;16.00;98.90;;;;;;5052660;28;20212;-77
2021/05/25 11:12:14;;;;;;;2.20;0.80;;;15.90;98.70;;;;;;5050802;28;20568;-77
2021/05/25 11:15:16;;;;;;;3.45;2.35;;;15.70;99.00;;;;;;5052451;28;20618;-76
2021/05/25 11:17:46;;;;;;;2.92;1.08;;;15.70;99.10;;;;;;5052020;28;20251;-76
2021/05/25 11:20:32;;;;;;;1.98;0.80;;;15.80;99.90;;;;;;5052645;28;20196;-77
2021/05/25 11:22:58;;;;;;;2.73;0.87;;;15.90;99.90;;;;;;5052411;28;20231;-76
2021/05/25 11:25:40;;;;;;;2.00;0.80;;;16.20;99.90;;;;;;5052590;28;20923;-76
2021/05/25 11:28:06;;;;;;;5.03;1.10;;;16.40;99.90;;;;;;5054438;28;20233;-76
2021/05/25 11:30:32;;;;;;;7.97;0.90;;;16.60;99.90;;;;;;5052322;28;20979;-77
2021/05/25 11:33:02;;;;;;;3.00;0.93;;;17.00;99.90;;;;;;5034254;28;20660;-76
2021/05/25 11:35:31;;;;;;;3.60;1.00;;;17.40;99.90;;;;;;5017623;28;20636;-76
2021/05/25 11:38:00;;;;;;;3.87;1.00;;;18.00;99.90;;;;;;5051423;28;20621;-76
2021/05/25 11:40:36;;;;;;;2.80;1.00;;;18.40;99.90;;;;;;5034526;28;20618;-77
2021/05/25 11:43:03;;;;;;;2.63;1.00;;;18.80;99.90;;;;;;5052036;28;20618;-76
2021/05/25 11:45:30;;;;;;;3.17;1.07;;;19.20;99.90;;;;;;5051976;28;20591;-77
2021/05/25 11:47:58;;;;;;;3.03;1.20;;;19.60;99.90;;;;;;5051552;28;20911;-77
2021/05/25 11:50:25;;;;;;;2.83;0.90;;;20.10;99.90;;;;;;5052366;28;20563;-78
2021/05/25 11:52:52;;;;;;;2.87;0.87;;;20.50;99.90;;;;;;5052151;28;20733;-77
2021/05/25 11:55:20;;;;;;;5.30;0.97;;;20.90;99.90;;;;;;5053090;28;20577;-78
2021/05/25 11:57:48;;;;;;;2.00;1.00;;;21.30;99.90;;;;;;5057598;28;20981;-80
2021/05/25 12:00:24;;;;;;;5.80;1.60;;;21.80;99.90;;;;;;5038503;28;20631;-79
2021/05/25 12:03:01;;;;;;;3.70;1.43;;;22.10;99.10;;;;;;5068153;28;20599;-80
2021/05/25 12:05:30;;;;;;;3.10;1.23;;;22.30;96.90;;;;;;5037824;28;20966;-81
2021/05/25 12:07:58;;;;;;;3.07;1.00;;;22.30;96.70;;;;;;5033856;28;21111;-81
2021/05/25 12:10:28;;;;;;;3.00;0.90;;;22.20;96.00;;;;;;5017814;28;20579;-81
2021/05/25 12:13:01;;;;;;;2.90;1.23;;;22.20;95.00;;;;;;5033680;28;20603;-82
2021/05/25 12:15:27;;;;;;;4.50;2.10;;;22.00;94.50;;;;;;5034769;28;20598;-81
2021/05/25 12:17:55;;;;;;;2.80;1.70;;;21.80;93.70;;;;;;5065763;28;20587;-82
2021/05/25 12:20:24;;;;;;;3.10;1.10;;;21.60;93.30;;;;;;5025148;28;20630;-81
2021/05/25 12:23:13;;;;;;;4.13;1.80;;;21.20;92.90;;;;;;5102399;27;20786;-81
2021/05/25 12:25:39;;;;;;;3.23;1.00;;;20.80;92.30;;;;;;5101708;28;20843;-80
2021/05/25 12:28:12;;;;;;;2.80;0.60;;;20.30;92.10;;;;;;5093272;28;21089;-80
2021/05/25 12:30:44;;;;;;;2.10;0.60;;;19.70;90.80;;;;;;5093066;28;20566;-80
2021/05/25 12:33:19;;;;;;;1.60;0.60;;;19.00;90.60;;;;;;5088839;28;20621;-79
2021/05/25 12:35:46;;;;;;;2.90;0.70;;;18.30;90.80;;;;;;5088842;28;20676;-80
2021/05/25 12:38:15;;;;;;;2.53;0.70;;;17.60;91.10;;;;;;5090931;28;20562;-79
2021/05/25 12:40:43;;;;;;;4.93;0.60;;;17.00;91.50;;;;;;5090164;28;21097;-79
2021/05/25 12:43:20;;;;;;;1.10;0.50;;;16.40;91.90;;;;;;5091048;28;20594;-79
2021/05/25 12:45:47;;;;;;;2.28;0.50;;;15.90;92.50;;;;;;5088625;28;20649;-80
2021/05/25 12:48:13;;;;;;;1.50;0.60;;;15.50;92.90;;;;;;5090405;28;20781;-80
2021/05/25 12:50:43;;;;;;;4.03;0.70;;;15.10;93.70;;;;;;5090568;28;20175;-80
2021/05/25 12:53:16;;;;;;;1.40;0.70;;;14.80;94.50;;;;;;5071753;28;20280;-80
2021/05/25 12:55:59;;;;;;;2.58;1.17;;;14.60;95.50;;;;;;5091629;28;20225;-81
2021/05/25 12:58:45;;;;;;;3.92;0.70;;;14.30;96.40;;;;;;5093695;28;20163;-80
2021/05/25 13:01:19;;;;;;;6.20;0.90;;;14.20;98.40;;;;;;5088525;28;20564;-81
2021/05/25 13:03:45;;;;;;;2.58;0.85;;;14.10;98.40;;;;;;5097401;28;20273;-80
2021/05/25 13:06:31;;;;;;;2.10;1.10;;;14.10;98.60;;;;;;5098078;28;20175;-80